createdAt,value
2023-03-26T00:01:24.285Z,1.20
2023-03-26T00:03:54.671Z,1.57
2023-03-26T00:06:23.963Z,0.80
2023-03-26T00:08:53.104Z,1.30
2023-03-26T00:11:22.197Z,1.30
2023-03-26T00:13:53.886Z,1.10
2023-03-26T00:16:23.914Z,1.13
2023-03-26T00:18:53.672Z,1.00
2023-03-26T00:21:26.189Z,1.40
2023-03-26T00:23:55.262Z,1.17
2023-03-26T00:26:24.046Z,1.03
2023-03-26T00:28:52.404Z,1.37
2023-03-26T00:31:21.196Z,1.10
2023-03-26T00:33:54.319Z,1.17
2023-03-26T00:36:23.305Z,1.07
2023-03-26T00:38:52.961Z,1.03
2023-03-26T00:41:25.710Z,0.90
2023-03-26T00:43:56.375Z,1.00
2023-03-26T00:46:25.172Z,1.20
2023-03-26T00:48:58.699Z,1.33
2023-03-26T00:51:27.850Z,1.37
2023-03-26T00:53:56.629Z,1.00
2023-03-26T00:56:25.368Z,1.20
2023-03-26T00:58:53.718Z,1.30
2023-03-26T01:01:27.943Z,1.40
2023-03-26T01:04:08.957Z,1.33
2023-03-26T01:06:48.190Z,1.47
2023-03-26T01:09:20.786Z,1.20
2023-03-26T01:11:51.737Z,1.00
2023-03-26T01:14:24.619Z,1.30
2023-03-26T01:16:56.051Z,1.27
2023-03-26T01:22:55.034Z,1.30
2023-03-26T01:25:42.770Z,1.10
2023-03-26T01:28:14.539Z,1.27
2023-03-26T01:30:51.095Z,1.00
2023-03-26T01:33:30.977Z,1.47
2023-03-26T01:36:05.827Z,0.90
2023-03-26T01:38:50.413Z,1.30
2023-03-26T01:41:28.313Z,1.67
2023-03-26T01:44:02.157Z,1.20
2023-03-26T01:46:37.284Z,1.30
2023-03-26T01:49:10.142Z,1.40
2023-03-26T01:51:38.990Z,1.27
2023-03-26T01:54:10.326Z,0.90
2023-03-26T01:56:45.936Z,1.00
2023-03-26T01:59:22.286Z,1.50
2023-03-26T02:01:58.810Z,1.50
2023-03-26T02:04:34.480Z,1.37
2023-03-26T02:07:06.108Z,0.97
2023-03-26T02:09:38.238Z,1.13
2023-03-26T02:12:08.918Z,1.30
2023-03-26T02:14:37.787Z,1.50
2023-03-26T02:17:10.085Z,1.60
2023-03-26T02:19:42.053Z,1.20
2023-03-26T02:22:11.362Z,1.10
2023-03-26T02:24:39.693Z,1.30
2023-03-26T02:27:09.621Z,1.50
2023-03-26T02:29:39.950Z,1.57
2023-03-26T02:32:08.702Z,1.30
2023-03-26T02:34:37.624Z,1.37
2023-03-26T02:37:06.255Z,1.40
2023-03-26T02:39:34.728Z,1.23
2023-03-26T02:42:03.224Z,1.20
2023-03-26T02:44:33.149Z,1.23
2023-03-26T02:49:57.780Z,1.23
2023-03-26T02:52:26.267Z,1.50
2023-03-26T02:54:55.109Z,1.20
2023-03-26T02:57:23.716Z,1.03
2023-03-26T02:59:53.928Z,1.90
2023-03-26T03:02:24.384Z,1.23
2023-03-26T03:04:53.014Z,1.40
2023-03-26T03:07:24.419Z,1.63
2023-03-26T03:09:52.745Z,1.30
2023-03-26T03:12:21.252Z,1.90
2023-03-26T03:14:49.609Z,1.20
2023-03-26T03:17:20.827Z,1.67
2023-03-26T03:19:49.382Z,1.20
2023-03-26T03:22:17.936Z,1.23
2023-03-26T03:24:46.277Z,1.30
2023-03-26T03:27:15.596Z,1.53
2023-03-26T03:29:44.038Z,1.20
2023-03-26T03:32:12.512Z,1.63
2023-03-26T03:34:42.523Z,1.30
2023-03-26T03:37:11.024Z,1.33
2023-03-26T03:39:39.513Z,1.30
2023-03-26T03:42:07.795Z,1.30
2023-03-26T03:44:36.212Z,1.00
2023-03-26T03:47:04.620Z,1.60
2023-03-26T03:49:33.409Z,1.50
2023-03-26T03:52:03.229Z,1.40
2023-03-26T03:54:31.710Z,1.40
2023-03-26T03:57:00.164Z,1.40
2023-03-26T03:59:28.677Z,1.57
2023-03-26T04:01:57.128Z,2.13
2023-03-26T04:04:25.716Z,1.20
2023-03-26T04:06:54.302Z,1.40
2023-03-26T04:09:24.136Z,1.53
2023-03-26T04:11:52.604Z,1.50
2023-03-26T04:14:20.957Z,1.50
2023-03-26T04:16:49.931Z,1.27
2023-03-26T04:19:18.308Z,1.17
2023-03-26T04:21:46.733Z,1.30
2023-03-26T04:24:15.128Z,1.50
2023-03-26T04:26:44.931Z,1.30
2023-03-26T04:29:18.201Z,1.37
2023-03-26T04:31:47.246Z,1.57
2023-03-26T04:34:19.199Z,1.43
2023-03-26T04:36:47.636Z,1.30
2023-03-26T04:39:16.445Z,1.60
2023-03-26T04:41:46.999Z,1.23
2023-03-26T04:44:17.245Z,1.33
2023-03-26T04:46:46.177Z,2.03
2023-03-26T04:49:14.510Z,1.00
2023-03-26T04:51:44.863Z,1.93
2023-03-26T04:54:14.393Z,1.60
2023-03-26T04:56:44.241Z,1.60
2023-03-26T04:59:15.504Z,1.93
2023-03-26T05:01:46.005Z,1.60
2023-03-26T05:04:14.853Z,1.50
2023-03-26T05:06:43.602Z,1.37
2023-03-26T05:09:12.082Z,1.30
2023-03-26T05:11:40.454Z,1.37
2023-03-26T05:14:08.828Z,1.60
2023-03-26T05:16:39.501Z,1.77
2023-03-26T05:19:08.653Z,1.60
2023-03-26T05:21:37.177Z,1.47
2023-03-26T05:24:06.323Z,1.50
2023-03-26T05:26:34.989Z,1.20
2023-03-26T05:29:03.572Z,1.90
2023-03-26T05:31:32.022Z,1.30
2023-03-26T05:34:01.880Z,1.60
2023-03-26T05:36:30.397Z,1.43
2023-03-26T05:38:58.945Z,0.97
2023-03-26T05:41:27.458Z,2.07
2023-03-26T05:43:56.314Z,1.67
2023-03-26T05:46:24.772Z,1.77
2023-03-26T05:48:53.967Z,1.70
2023-03-26T05:51:24.652Z,1.50
2023-03-26T05:53:53.284Z,1.50
2023-03-26T05:56:21.693Z,1.83
2023-03-26T05:58:51.852Z,1.60
2023-03-26T06:01:20.815Z,1.70
2023-03-26T06:03:49.287Z,1.20
2023-03-26T06:06:18.649Z,1.40
2023-03-26T06:09:01.646Z,1.50
2023-03-26T06:11:31.258Z,1.60
2023-03-26T06:13:59.674Z,1.50
2023-03-26T06:16:28.506Z,1.77
2023-03-26T06:18:57.787Z,1.73
2023-03-26T06:21:26.374Z,1.87
2023-03-26T06:23:56.615Z,1.50
2023-03-26T06:26:24.991Z,1.70
2023-03-26T06:28:53.658Z,1.63
2023-03-26T06:31:21.983Z,1.63
2023-03-26T06:33:50.464Z,1.43
2023-03-26T06:36:18.921Z,1.50
2023-03-26T06:38:47.392Z,1.50
2023-03-26T06:41:17.937Z,1.90
2023-03-26T06:43:50.615Z,1.63
2023-03-26T06:46:23.729Z,1.80
2023-03-26T06:49:13.674Z,1.43
2023-03-26T06:51:43.846Z,1.50
2023-03-26T06:54:12.252Z,1.60
2023-03-26T06:56:48.418Z,2.13
2023-03-26T06:59:17.924Z,1.20
2023-03-26T07:01:48.600Z,1.57
2023-03-26T07:04:17.734Z,1.40
2023-03-26T07:06:46.421Z,2.67
2023-03-26T07:09:14.802Z,1.57
2023-03-26T07:11:44.584Z,1.50
2023-03-26T07:14:13.291Z,2.23
2023-03-26T07:16:41.696Z,1.43
2023-03-26T07:19:10.075Z,1.50
2023-03-26T07:21:38.756Z,1.17
2023-03-26T07:24:07.493Z,1.67
2023-03-26T07:26:38.444Z,1.50
2023-03-26T07:29:11.638Z,1.43
2023-03-26T07:31:43.530Z,1.50
2023-03-26T07:34:16.069Z,1.23
2023-03-26T07:36:52.181Z,1.60
2023-03-26T07:39:29.282Z,1.40
2023-03-26T07:42:00.351Z,1.40
2023-03-26T07:44:46.056Z,1.17
2023-03-26T07:47:26.324Z,1.37
2023-03-26T07:49:57.908Z,1.33
2023-03-26T07:52:26.812Z,1.40
2023-03-26T07:54:55.563Z,1.33
2023-03-26T07:57:29.791Z,2.20
2023-03-26T08:00:02.630Z,2.20
2023-03-26T08:02:52.142Z,1.60
2023-03-26T08:05:26.316Z,1.80
2023-03-26T08:08:06.032Z,1.83
2023-03-26T08:10:41.434Z,1.77
2023-03-26T08:13:17.087Z,1.83
2023-03-26T08:15:49.963Z,1.70
2023-03-26T08:18:30.598Z,1.60
2023-03-26T08:21:01.821Z,1.70
2023-03-26T08:23:35.523Z,2.13
2023-03-26T08:26:24.630Z,1.40
2023-03-26T08:29:00.823Z,1.93
2023-03-26T08:31:45.277Z,1.50
2023-03-26T08:34:14.489Z,1.73
2023-03-26T08:36:44.491Z,2.03
2023-03-26T08:39:14.312Z,1.77
2023-03-26T08:42:01.462Z,1.90
2023-03-26T08:44:56.823Z,1.60
2023-03-26T08:47:50.848Z,1.90
2023-03-26T08:50:34.096Z,1.80
2023-03-26T08:53:23.119Z,2.07
2023-03-26T08:55:56.694Z,1.97
2023-03-26T08:58:41.242Z,1.80
2023-03-26T09:01:31.598Z,1.70
2023-03-26T09:04:44.138Z,1.60
2023-03-26T09:07:27.813Z,1.87
2023-03-26T09:10:17.516Z,1.87
2023-03-26T09:15:47.566Z,1.50
2023-03-26T09:18:31.412Z,1.83
2023-03-26T09:21:26.720Z,1.77
2023-03-26T09:24:15.541Z,1.70
2023-03-26T09:27:08.068Z,1.83
2023-03-26T09:30:24.882Z,1.90
2023-03-26T09:40:54.997Z,1.60
2023-03-26T09:43:39.776Z,1.27
2023-03-26T09:46:18.470Z,1.70
2023-03-26T09:49:01.806Z,1.80
2023-03-26T09:51:51.288Z,1.90
2023-03-26T09:54:30.171Z,1.37
2023-03-26T09:57:03.265Z,1.20
2023-03-26T09:59:49.598Z,1.67
2023-03-26T10:02:45.484Z,1.70
2023-03-26T10:05:24.314Z,2.03
2023-03-26T10:08:04.035Z,2.07
2023-03-26T10:10:39.479Z,1.87
2023-03-26T10:13:14.782Z,1.93
2023-03-26T10:15:52.115Z,2.13
2023-03-26T10:18:27.737Z,2.10
2023-03-26T10:21:01.250Z,1.80
2023-03-26T10:23:38.544Z,1.87
2023-03-26T10:26:22.286Z,1.80
2023-03-26T10:29:00.945Z,1.97
2023-03-26T10:31:37.868Z,1.63
2023-03-26T10:34:28.000Z,1.80
2023-03-26T10:36:59.780Z,1.73
2023-03-26T10:39:49.562Z,1.60
2023-03-26T10:42:32.723Z,1.40
2023-03-26T10:45:11.414Z,1.77
2023-03-26T10:48:04.351Z,1.90
2023-03-26T10:50:47.639Z,1.73
2023-03-26T10:53:31.250Z,1.93
2023-03-26T11:01:21.882Z,1.57
2023-03-26T11:03:57.857Z,1.97
2023-03-26T11:06:39.942Z,1.30
2023-03-26T11:09:17.729Z,1.20
2023-03-26T11:11:49.876Z,1.10
2023-03-26T11:14:34.220Z,1.00
2023-03-26T11:29:55.237Z,1.40
2023-03-26T11:44:33.448Z,1.00
2023-03-26T11:47:04.587Z,1.10
2023-03-26T11:49:33.010Z,1.27
2023-03-26T11:52:03.838Z,0.80
2023-03-26T11:54:33.074Z,1.00
2023-03-26T11:57:07.000Z,0.80
2023-03-26T11:59:49.063Z,1.10
2023-03-26T12:02:26.566Z,1.00
2023-03-26T12:04:55.754Z,0.80
2023-03-26T12:07:32.681Z,0.80
2023-03-26T12:10:18.368Z,0.90
2023-03-26T12:12:48.370Z,0.93
2023-03-26T12:15:19.109Z,1.00
2023-03-26T12:17:48.847Z,1.10
2023-03-26T12:20:32.471Z,0.97
2023-03-26T12:23:03.295Z,1.10
2023-03-26T12:25:32.665Z,1.30
2023-03-26T12:28:02.910Z,1.00
2023-03-26T12:30:33.926Z,0.80
2023-03-26T12:33:04.487Z,1.00
2023-03-26T12:35:35.145Z,0.93
2023-03-26T12:38:23.074Z,1.10
2023-03-26T12:41:05.077Z,0.87
2023-03-26T12:44:50.125Z,0.97
2023-03-26T12:47:55.657Z,1.23
2023-03-26T12:49:18.795Z,1.20
2023-03-26T12:51:50.026Z,1.20
2023-03-26T12:54:28.995Z,1.03
2023-03-26T13:00:01.071Z,1.00
2023-03-26T13:02:24.108Z,1.30
2023-03-26T13:02:42.322Z,1.10
2023-03-26T13:05:15.153Z,1.20
2023-03-26T13:07:59.009Z,0.90
2023-03-26T13:10:48.159Z,1.20
2023-03-26T13:13:34.375Z,1.00
2023-03-26T13:16:06.939Z,1.20
2023-03-26T13:18:43.590Z,1.07
2023-03-26T13:21:14.553Z,1.13
2023-03-26T13:23:46.750Z,1.10
2023-03-26T13:26:22.121Z,1.00
2023-03-26T13:28:53.954Z,1.03
2023-03-26T13:31:27.225Z,0.70
2023-03-26T13:33:59.800Z,1.00
2023-03-26T13:36:32.917Z,0.90
2023-03-26T13:39:08.082Z,0.90
2023-03-26T13:41:43.936Z,1.00
2023-03-26T13:44:17.814Z,1.10
2023-03-26T13:46:49.276Z,0.93
2023-03-26T13:49:18.867Z,1.03
2023-03-26T13:51:49.915Z,1.20
2023-03-26T13:54:21.723Z,0.90
2023-03-26T13:56:52.655Z,1.17
2023-03-26T13:59:22.458Z,1.40
2023-03-26T14:01:56.825Z,0.87
2023-03-26T14:04:32.209Z,1.20
2023-03-26T14:07:03.361Z,1.00
2023-03-26T14:09:32.850Z,1.00
2023-03-26T14:12:20.992Z,1.00
2023-03-26T14:14:52.546Z,1.00
2023-03-26T14:17:24.082Z,0.80
2023-03-26T14:20:11.300Z,1.60
2023-03-26T14:22:43.939Z,0.60
2023-03-26T14:25:18.897Z,0.77
2023-03-26T14:27:53.496Z,0.50
2023-03-26T14:30:33.459Z,0.53
2023-03-26T14:33:12.472Z,0.40
2023-03-26T14:35:43.016Z,0.67
2023-03-26T14:38:21.267Z,0.70
2023-03-26T14:40:54.345Z,0.60
2023-03-26T14:43:32.448Z,0.70
2023-03-26T14:46:10.148Z,0.67
2023-03-26T14:49:05.670Z,0.70
2023-03-26T14:51:49.904Z,0.80
2023-03-26T14:54:20.834Z,1.13
2023-03-26T14:57:04.816Z,0.93
2023-03-26T14:59:52.173Z,1.10
2023-03-26T15:02:44.250Z,0.80
2023-03-26T15:05:32.943Z,0.90
2023-03-26T15:08:14.880Z,0.83
2023-03-26T15:10:58.504Z,0.70
2023-03-26T15:13:42.171Z,1.20
2023-03-26T15:16:37.863Z,1.07
2023-03-26T15:19:17.714Z,0.90
2023-03-26T15:22:05.314Z,1.00
2023-03-26T15:24:48.758Z,1.37
2023-03-26T15:27:26.974Z,1.30
2023-03-26T15:30:03.482Z,1.10
2023-03-26T15:32:41.396Z,1.30
2023-03-26T15:35:20.321Z,1.60
2023-03-26T15:38:01.601Z,1.60
2023-03-26T15:40:33.885Z,1.40
2023-03-26T15:43:09.930Z,1.20
2023-03-26T15:50:57.086Z,1.67
2023-03-26T15:53:31.297Z,1.47
2023-03-26T15:56:09.086Z,1.80
2023-03-26T15:58:45.328Z,1.43
2023-03-26T16:01:19.228Z,1.10
2023-03-26T16:03:53.462Z,1.00
2023-03-26T16:06:30.959Z,1.10
2023-03-26T16:09:08.017Z,0.90
2023-03-26T16:11:55.500Z,0.93
2023-03-26T16:14:58.517Z,0.87
2023-03-26T16:17:27.433Z,0.70
2023-03-26T16:20:03.506Z,1.10
2023-03-26T16:22:42.547Z,1.40
2023-03-26T16:25:27.392Z,1.10
2023-03-26T16:28:24.201Z,1.00
2023-03-26T16:31:35.080Z,0.80
2023-03-26T16:34:20.183Z,1.00
2023-03-26T16:36:51.531Z,1.33
2023-03-26T16:39:21.555Z,1.27
2023-03-26T16:41:56.316Z,1.20
2023-03-26T16:44:39.536Z,1.20
2023-03-26T16:47:15.545Z,1.10
2023-03-26T16:50:08.841Z,1.10
2023-03-26T16:52:46.299Z,1.43
2023-03-26T16:55:18.728Z,1.33
2023-03-26T16:57:53.461Z,1.20
2023-03-26T17:00:39.757Z,1.20
2023-03-26T17:03:14.860Z,1.37
2023-03-26T17:06:03.212Z,1.20
2023-03-26T17:08:44.774Z,1.17
2023-03-26T17:11:25.152Z,1.60
2023-03-26T17:14:23.458Z,0.77
2023-03-26T17:17:05.770Z,0.90
2023-03-26T17:19:38.586Z,1.27
2023-03-26T17:25:02.937Z,1.10
2023-03-26T17:27:38.333Z,1.70
2023-03-26T17:30:27.756Z,1.07
2023-03-26T17:33:00.716Z,0.90
2023-03-26T17:35:41.383Z,1.40
2023-03-26T17:38:31.791Z,1.10
2023-03-26T17:41:01.880Z,1.20
2023-03-26T17:43:38.094Z,1.53
2023-03-26T17:46:25.121Z,1.67
2023-03-26T17:48:59.203Z,1.33
2023-03-26T17:51:38.836Z,1.37
2023-03-26T17:54:08.706Z,0.90
2023-03-26T17:56:41.985Z,0.90
2023-03-26T17:59:14.877Z,0.70
2023-03-26T18:01:46.030Z,0.93
2023-03-26T18:04:18.734Z,1.23
2023-03-26T18:06:57.583Z,0.80
2023-03-26T18:09:37.458Z,0.70
2023-03-26T18:12:20.799Z,1.57
2023-03-26T18:15:00.823Z,1.07
2023-03-26T18:17:33.595Z,1.00
2023-03-26T18:20:06.238Z,0.70
2023-03-26T18:22:37.047Z,0.50
2023-03-26T18:28:19.750Z,0.70
2023-03-26T18:30:52.089Z,0.63
2023-03-26T18:33:43.813Z,0.67
2023-03-26T18:36:19.554Z,0.80
2023-03-26T18:38:50.701Z,0.63
2023-03-26T18:41:25.427Z,0.70
2023-03-26T18:43:55.628Z,0.70
2023-03-26T18:46:27.405Z,0.60
2023-03-26T18:52:08.149Z,0.77
2023-03-26T18:59:59.072Z,0.53
2023-03-26T19:05:20.405Z,1.00
2023-03-26T19:07:52.407Z,0.70
2023-03-26T19:10:25.352Z,0.70
2023-03-26T19:13:00.204Z,0.90
2023-03-26T19:15:29.397Z,0.90
2023-03-26T19:18:06.795Z,1.03
2023-03-26T19:20:39.306Z,0.90
2023-03-26T19:23:09.824Z,0.93
2023-03-26T19:25:40.805Z,0.87
2023-03-26T19:28:15.822Z,0.70
2023-03-26T19:30:44.460Z,0.90
2023-03-26T19:33:41.675Z,0.70
2023-03-26T19:36:19.414Z,0.90
2023-03-26T19:38:51.582Z,0.87
2023-03-26T19:41:23.169Z,1.00
2023-03-26T19:43:52.665Z,1.40
2023-03-26T19:46:25.116Z,1.30
2023-03-26T19:48:55.078Z,0.73
2023-03-26T19:51:27.454Z,1.13
2023-03-26T19:53:56.817Z,0.80
2023-03-26T19:56:25.694Z,0.83
2023-03-26T19:58:54.341Z,0.90
2023-03-26T20:01:23.853Z,0.97
2023-03-26T20:03:53.509Z,0.80
2023-03-26T20:06:30.801Z,0.80
2023-03-26T20:09:09.987Z,1.07
2023-03-26T20:11:39.923Z,1.00
2023-03-26T20:14:13.161Z,0.80
2023-03-26T20:16:43.797Z,0.60
2023-03-26T20:19:14.213Z,0.93
2023-03-26T20:21:43.264Z,0.90
2023-03-26T20:24:15.175Z,1.00
2023-03-26T20:26:43.714Z,1.00
2023-03-26T20:29:13.013Z,0.80
2023-03-26T20:31:42.820Z,0.93
2023-03-26T20:34:16.604Z,0.67
2023-03-26T20:36:45.573Z,1.00
2023-03-26T20:39:15.783Z,0.60
2023-03-26T20:41:46.809Z,0.60
2023-03-26T20:44:17.665Z,0.60
2023-03-26T20:46:47.495Z,0.73
2023-03-26T20:49:16.531Z,1.00
2023-03-26T20:51:45.431Z,0.70
2023-03-26T20:54:17.767Z,0.90
2023-03-26T20:56:48.007Z,0.80
2023-03-26T20:59:19.360Z,1.03
2023-03-26T21:01:48.775Z,0.80
2023-03-26T21:04:17.485Z,0.80
2023-03-26T21:06:46.049Z,0.70
2023-03-26T21:09:17.957Z,0.67
2023-03-26T21:11:51.871Z,0.80
2023-03-26T21:14:21.901Z,0.67
2023-03-26T21:16:50.656Z,0.60
2023-03-26T21:19:20.283Z,0.70
2023-03-26T21:21:52.688Z,0.80
2023-03-26T21:24:29.600Z,0.50
2023-03-26T21:26:59.796Z,0.50
2023-03-26T21:29:28.705Z,0.50
2023-03-26T21:31:58.646Z,0.50
2023-03-26T21:34:29.585Z,0.50
2023-03-26T21:36:58.372Z,0.50
2023-03-26T21:39:29.176Z,0.50
2023-03-26T21:42:04.760Z,0.67
2023-03-26T21:44:34.696Z,0.60
2023-03-26T21:47:03.383Z,0.70
2023-03-26T21:49:32.513Z,1.07
2023-03-26T21:52:01.965Z,0.70
2023-03-26T21:54:33.053Z,0.70
2023-03-26T21:57:20.445Z,0.70
2023-03-26T21:59:52.307Z,0.60
2023-03-26T22:02:25.624Z,0.63
2023-03-26T22:04:55.825Z,0.57
2023-03-26T22:07:27.840Z,0.70
2023-03-26T22:09:58.509Z,0.80
2023-03-26T22:12:27.032Z,0.50
2023-03-26T22:14:55.417Z,0.70
2023-03-26T22:17:24.832Z,0.57
2023-03-26T22:19:53.460Z,0.80
2023-03-26T22:22:22.751Z,0.70
2023-03-26T22:24:51.750Z,0.90
2023-03-26T22:27:21.738Z,0.50
2023-03-26T22:29:50.381Z,0.77
2023-03-26T22:32:18.945Z,0.70
2023-03-26T22:34:47.737Z,0.80
2023-03-26T22:37:17.392Z,0.60
2023-03-26T22:39:46.258Z,0.73
2023-03-26T22:42:15.808Z,0.53
2023-03-26T22:44:45.589Z,0.60
2023-03-26T22:47:14.301Z,0.50
2023-03-26T22:49:42.907Z,0.60
2023-03-26T22:52:11.851Z,0.90
2023-03-26T22:54:40.316Z,0.70
2023-03-26T22:57:08.967Z,0.67
2023-03-26T22:59:37.829Z,0.53
2023-03-26T23:02:09.875Z,0.60
2023-03-26T23:04:38.595Z,0.63
2023-03-26T23:07:07.697Z,0.70
2023-03-26T23:09:36.735Z,0.70
2023-03-26T23:12:06.140Z,0.70
2023-03-26T23:14:34.642Z,0.60
2023-03-26T23:17:03.683Z,0.77
2023-03-26T23:19:34.695Z,0.50
2023-03-26T23:22:03.041Z,0.70
2023-03-26T23:24:31.622Z,0.57
2023-03-26T23:27:00.293Z,0.70
2023-03-26T23:29:30.167Z,0.70
2023-03-26T23:31:59.147Z,0.70
2023-03-26T23:34:27.944Z,0.90
2023-03-26T23:36:58.120Z,0.80
2023-03-26T23:39:28.618Z,0.70
2023-03-26T23:41:57.155Z,0.70
2023-03-26T23:44:25.768Z,0.80
2023-03-26T23:46:58.083Z,0.87
2023-03-26T23:49:27.121Z,0.63
2023-03-26T23:51:55.535Z,0.80
2023-03-26T23:54:25.674Z,0.70
2023-03-26T23:56:57.973Z,0.77
2023-03-26T23:59:27.241Z,0.83
